Aviation Digital Data Service (ADDS)

Output produced by METARs form (1118 UTC 19 February 2019)
found at http://www.aviationweather.gov/metar/data/
 
METAR text: VOMM 191100Z 11010KT 7000 FEW020 31/24 Q1011 NOSIG
Conditions at: VOMM (MADRAS/CHENNAI , IN) observed 1100 UTC 19 February 2019
Temperature: 31.0°C (88°F)
Dewpoint: 24.0°C (75°F) [RH = 66%]
Pressure (altimeter): 29.85 inches Hg (1011.0 mb)
Winds: from the ESE (110 degrees) at 12 MPH (10 knots; 5.1 m/s)
Visibility: 4 miles ( 7 km)
Ceiling: at least 12,000 feet AGL
Clouds: few clouds at 2000 feet AGL
Weather: no significant weather observed at this time

METAR text: VOMM 191030Z 10008KT 7000 FEW020 31/25 Q1011 NOSIG
Conditions at: VOMM (MADRAS/CHENNAI , IN) observed 1030 UTC 19 February 2019
Temperature: 31.0°C (88°F)
Dewpoint: 25.0°C (77°F) [RH = 71%]
Pressure (altimeter): 29.85 inches Hg (1011.0 mb)
Winds: from the E (100 degrees) at 9 MPH (8 knots; 4.1 m/s)
Visibility: 4 miles ( 7 km)
Ceiling: at least 12,000 feet AGL
Clouds: few clouds at 2000 feet AGL
Weather: no significant weather observed at this time

METAR text: VOMM 191000Z 08010KT 7000 FEW020 31/24 Q1011 NOSIG
Conditions at: VOMM (MADRAS/CHENNAI , IN) observed 1000 UTC 19 February 2019
Temperature: 31.0°C (88°F)
Dewpoint: 24.0°C (75°F) [RH = 66%]
Pressure (altimeter): 29.85 inches Hg (1011.0 mb)
Winds: from the E (80 degrees) at 12 MPH (10 knots; 5.1 m/s)
Visibility: 4 miles ( 7 km)
Ceiling: at least 12,000 feet AGL
Clouds: few clouds at 2000 feet AGL
Weather: no significant weather observed at this time

METAR text: VOMM 190930Z 11010KT 7000 FEW020 31/24 Q1011 NOSIG
Conditions at: VOMM (MADRAS/CHENNAI , IN) observed 0930 UTC 19 February 2019
Temperature: 31.0°C (88°F)
Dewpoint: 24.0°C (75°F) [RH = 66%]
Pressure (altimeter): 29.85 inches Hg (1011.0 mb)
Winds: from the ESE (110 degrees) at 12 MPH (10 knots; 5.1 m/s)
Visibility: 4 miles ( 7 km)
Ceiling: at least 12,000 feet AGL
Clouds: few clouds at 2000 feet AGL
Weather: no significant weather observed at this time

METAR text: VOMM 190900Z 10012KT 7000 FEW020 32/24 Q1011 NOSIG
Conditions at: VOMM (MADRAS/CHENNAI , IN) observed 0900 UTC 19 February 2019
Temperature: 32.0°C (90°F)
Dewpoint: 24.0°C (75°F) [RH = 63%]
Pressure (altimeter): 29.85 inches Hg (1011.0 mb)
Winds: from the E (100 degrees) at 14 MPH (12 knots; 6.2 m/s)
Visibility: 4 miles ( 7 km)
Ceiling: at least 12,000 feet AGL
Clouds: few clouds at 2000 feet AGL
Weather: no significant weather observed at this time

METAR text: VOMM 190830Z 09012KT 7000 FEW020 32/24 Q1011 NOSIG
Conditions at: VOMM (MADRAS/CHENNAI , IN) observed 0830 UTC 19 February 2019
Temperature: 32.0°C (90°F)
Dewpoint: 24.0°C (75°F) [RH = 63%]
Pressure (altimeter): 29.85 inches Hg (1011.0 mb)
Winds: from the E (90 degrees) at 14 MPH (12 knots; 6.2 m/s)
Visibility: 4 miles ( 7 km)
Ceiling: at least 12,000 feet AGL
Clouds: few clouds at 2000 feet AGL
Weather: no significant weather observed at this time

METAR text: VOMM 190800Z 08010KT 7000 SCT018 32/25 Q1012 NOSIG
Conditions at: VOMM (MADRAS/CHENNAI , IN) observed 0800 UTC 19 February 2019
Temperature: 32.0°C (90°F)
Dewpoint: 25.0°C (77°F) [RH = 67%]
Pressure (altimeter): 29.88 inches Hg (1012.0 mb)
Winds: from the E (80 degrees) at 12 MPH (10 knots; 5.1 m/s)
Visibility: 4 miles ( 7 km)
Ceiling: at least 12,000 feet AGL
Clouds: scattered clouds at 1800 feet AGL
Weather: no significant weather observed at this time

METAR text: VOMM 190730Z 08010KT 7000 SCT018 32/25 Q1012 NOSIG
Conditions at: VOMM (MADRAS/CHENNAI , IN) observed 0730 UTC 19 February 2019
Temperature: 32.0°C (90°F)
Dewpoint: 25.0°C (77°F) [RH = 67%]
Pressure (altimeter): 29.88 inches Hg (1012.0 mb)
Winds: from the E (80 degrees) at 12 MPH (10 knots; 5.1 m/s)
Visibility: 4 miles ( 7 km)
Ceiling: at least 12,000 feet AGL
Clouds: scattered clouds at 1800 feet AGL
Weather: no significant weather observed at this time

METAR text: VOMM 190700Z 09009KT 7000 SCT018 32/25 Q1013 NOSIG
Conditions at: VOMM (MADRAS/CHENNAI , IN) observed 0700 UTC 19 February 2019
Temperature: 32.0°C (90°F)
Dewpoint: 25.0°C (77°F) [RH = 67%]
Pressure (altimeter): 29.91 inches Hg (1013.0 mb)
Winds: from the E (90 degrees) at 10 MPH (9 knots; 4.6 m/s)
Visibility: 4 miles ( 7 km)
Ceiling: at least 12,000 feet AGL
Clouds: scattered clouds at 1800 feet AGL
Weather: no significant weather observed at this time

METAR text: VOMM 190630Z 09008KT 7000 SCT018 32/25 Q1013 NOSIG
Conditions at: VOMM (MADRAS/CHENNAI , IN) observed 0630 UTC 19 February 2019
Temperature: 32.0°C (90°F)
Dewpoint: 25.0°C (77°F) [RH = 67%]
Pressure (altimeter): 29.91 inches Hg (1013.0 mb)
Winds: from the E (90 degrees) at 9 MPH (8 knots; 4.1 m/s)
Visibility: 4 miles ( 7 km)
Ceiling: at least 12,000 feet AGL
Clouds: scattered clouds at 1800 feet AGL
Weather: no significant weather observed at this time

METAR text: VOMM 190600Z 10009KT 6000 SCT018 32/25 Q1014 NOSIG
Conditions at: VOMM (MADRAS/CHENNAI , IN) observed 0600 UTC 19 February 2019
Temperature: 32.0°C (90°F)
Dewpoint: 25.0°C (77°F) [RH = 67%]
Pressure (altimeter): 29.94 inches Hg (1014.0 mb)
Winds: from the E (100 degrees) at 10 MPH (9 knots; 4.6 m/s)
Visibility: 4 miles ( 6 km)
Ceiling: at least 12,000 feet AGL
Clouds: scattered clouds at 1800 feet AGL
Weather: no significant weather observed at this time

METAR text: VOMM 190530Z 09008KT 6000 SCT018 32/25 Q1014 NOSIG
Conditions at: VOMM (MADRAS/CHENNAI , IN) observed 0530 UTC 19 February 2019
Temperature: 32.0°C (90°F)
Dewpoint: 25.0°C (77°F) [RH = 67%]
Pressure (altimeter): 29.94 inches Hg (1014.0 mb)
Winds: from the E (90 degrees) at 9 MPH (8 knots; 4.1 m/s)
Visibility: 4 miles ( 6 km)
Ceiling: at least 12,000 feet AGL
Clouds: scattered clouds at 1800 feet AGL
Weather: no significant weather observed at this time

METAR text: VOMM 190500Z 09006KT 5000 HZ SCT018 32/25 Q1014 NOSIG
Conditions at: VOMM (MADRAS/CHENNAI , IN) observed 0500 UTC 19 February 2019
Temperature: 32.0°C (90°F)
Dewpoint: 25.0°C (77°F) [RH = 67%]
Pressure (altimeter): 29.94 inches Hg (1014.0 mb)
Winds: from the E (90 degrees) at 7 MPH (6 knots; 3.1 m/s)
Visibility: 3 miles ( 5 km)
Ceiling: at least 12,000 feet AGL
Clouds: scattered clouds at 1800 feet AGL
Weather: HZ  (haze)

METAR text: VOMM 190430Z 14006KT 5000 HZ SCT018 31/25 Q1014 NOSIG
Conditions at: VOMM (MADRAS/CHENNAI , IN) observed 0430 UTC 19 February 2019
Temperature: 31.0°C (88°F)
Dewpoint: 25.0°C (77°F) [RH = 71%]
Pressure (altimeter): 29.94 inches Hg (1014.0 mb)
Winds: from the SE (140 degrees) at 7 MPH (6 knots; 3.1 m/s)
Visibility: 3 miles ( 5 km)
Ceiling: at least 12,000 feet AGL
Clouds: scattered clouds at 1800 feet AGL
Weather: HZ  (haze)

METAR text: VOMM 190400Z 11005KT 5000 HZ SCT018 31/25 Q1014 NOSIG
Conditions at: VOMM (MADRAS/CHENNAI , IN) observed 0400 UTC 19 February 2019
Temperature: 31.0°C (88°F)
Dewpoint: 25.0°C (77°F) [RH = 71%]
Pressure (altimeter): 29.94 inches Hg (1014.0 mb)
Winds: from the ESE (110 degrees) at 6 MPH (5 knots; 2.6 m/s)
Visibility: 3 miles ( 5 km)
Ceiling: at least 12,000 feet AGL
Clouds: scattered clouds at 1800 feet AGL
Weather: HZ  (haze)

METAR text: VOMM 190330Z 13004KT 4000 HZ SCT018 30/25 Q1014 BECMG 5000 HZ
Conditions at: VOMM (MADRAS/CHENNAI , IN) observed 0330 UTC 19 February 2019
Temperature: 30.0°C (86°F)
Dewpoint: 25.0°C (77°F) [RH = 75%]
Pressure (altimeter): 29.94 inches Hg (1014.0 mb)
Winds: from the SE (130 degrees) at 5 MPH (4 knots; 2.1 m/s)
Visibility: 2.49 miles (4.01 km)
Ceiling: at least 12,000 feet AGL
Clouds: scattered clouds at 1800 feet AGL
Weather: HZ  (haze)

METAR text: VOMM 190300Z 11004KT 2500 BR SCT018 30/26 Q1014 BECMG 3000 HZ
Conditions at: VOMM (MADRAS/CHENNAI , IN) observed 0300 UTC 19 February 2019
Temperature: 30.0°C (86°F)
Dewpoint: 26.0°C (79°F) [RH = 79%]
Pressure (altimeter): 29.94 inches Hg (1014.0 mb)
Winds: from the ESE (110 degrees) at 5 MPH (4 knots; 2.1 m/s)
Visibility: 1.55 miles (2.49 km)
Ceiling: at least 12,000 feet AGL
Clouds: scattered clouds at 1800 feet AGL
Weather: BR  (mist)

METAR text: VOMM 190230Z 06002KT 2000 BR SCT018 29/26 Q1013 NOSIG
Conditions at: VOMM (MADRAS/CHENNAI , IN) observed 0230 UTC 19 February 2019
Temperature: 29.0°C (84°F)
Dewpoint: 26.0°C (79°F) [RH = 84%]
Pressure (altimeter): 29.91 inches Hg (1013.0 mb)
Winds: from the ENE (60 degrees) at 2 MPH (2 knots; 1.0 m/s)
Visibility: 1.24 miles (2.00 km)
Ceiling: at least 12,000 feet AGL
Clouds: scattered clouds at 1800 feet AGL
Weather: BR  (mist)

METAR text: VOMM 190200Z 00000KT 1000 R25/1500 R07/1800 MIFG SCT015 27/26 Q1013 BECMG 1500 BR
Conditions at: VOMM (MADRAS/CHENNAI , IN) observed 0200 UTC 19 February 2019
Temperature: 27.0°C (81°F)
Dewpoint: 26.0°C (79°F) [RH = 94%]
Pressure (altimeter): 29.91 inches Hg (1013.0 mb)
Winds: calm
Visibility: 0.62 miles (1.00 km)
Ceiling: at least 12,000 feet AGL
Clouds: scattered clouds at 1500 feet AGL
Weather: MIFG  (shallow fog)

METAR text: VOMM 190130Z 31003KT 1000 R25/1800 R07/1100 MIFG SCT012 26/26 Q1012 TEMPO 0800 FG
Conditions at: VOMM (MADRAS/CHENNAI , IN) observed 0130 UTC 19 February 2019
Temperature: 26.0°C (79°F)
Dewpoint: 26.0°C (79°F) [RH = 100%]
Pressure (altimeter): 29.88 inches Hg (1012.0 mb)
Winds: from the NW (310 degrees) at 3 MPH (3 knots; 1.5 m/s)
Visibility: 0.62 miles (1.00 km)
Ceiling: at least 12,000 feet AGL
Clouds: scattered clouds at 1200 feet AGL
Weather: MIFG  (shallow fog)

METAR text: VOMM 190100Z 00000KT 3000 BR SCT015 27/25 Q1011 TEMPO 2000 -DZ
Conditions at: VOMM (MADRAS/CHENNAI , IN) observed 0100 UTC 19 February 2019
Temperature: 27.0°C (81°F)
Dewpoint: 25.0°C (77°F) [RH = 89%]
Pressure (altimeter): 29.85 inches Hg (1011.0 mb)
Winds: calm
Visibility: 1.86 miles (2.99 km)
Ceiling: at least 12,000 feet AGL
Clouds: scattered clouds at 1500 feet AGL
Weather: BR  (mist)

METAR text: VOMM 190030Z VRB02KT 4500 BR SCT018 27/25 Q1011 BECMG 4000 BR
Conditions at: VOMM (MADRAS/CHENNAI , IN) observed 0030 UTC 19 February 2019
Temperature: 27.0°C (81°F)
Dewpoint: 25.0°C (77°F) [RH = 89%]
Pressure (altimeter): 29.85 inches Hg (1011.0 mb)
Winds: variable direction winds at 2 MPH (2 knots; 1.0 m/s)
Visibility: 2.80 miles (4.51 km)
Ceiling: at least 12,000 feet AGL
Clouds: scattered clouds at 1800 feet AGL
Weather: BR  (mist)

METAR text: VOMM 190000Z VRB02KT 5000 BR SCT018 27/25 Q1010 NOSIG
Conditions at: VOMM (MADRAS/CHENNAI , IN) observed 0000 UTC 19 February 2019
Temperature: 27.0°C (81°F)
Dewpoint: 25.0°C (77°F) [RH = 89%]
Pressure (altimeter): 29.82 inches Hg (1010.0 mb)
Winds: variable direction winds at 2 MPH (2 knots; 1.0 m/s)
Visibility: 3 miles ( 5 km)
Ceiling: at least 12,000 feet AGL
Clouds: scattered clouds at 1800 feet AGL
Weather: BR  (mist)

METAR text: VOMM 182330Z 16004KT 5000 BR SCT018 28/26 Q1010 NOSIG
Conditions at: VOMM (MADRAS/CHENNAI , IN) observed 2330 UTC 18 February 2019
Temperature: 28.0°C (82°F)
Dewpoint: 26.0°C (79°F) [RH = 89%]
Pressure (altimeter): 29.82 inches Hg (1010.0 mb)
Winds: from the SSE (160 degrees) at 5 MPH (4 knots; 2.1 m/s)
Visibility: 3 miles ( 5 km)
Ceiling: at least 12,000 feet AGL
Clouds: scattered clouds at 1800 feet AGL
Weather: BR  (mist)

METAR text: VOMM 182300Z 16004KT 6000 SCT018 28/26 Q1010 BECMG 5000 BR
Conditions at: VOMM (MADRAS/CHENNAI , IN) observed 2300 UTC 18 February 2019
Temperature: 28.0°C (82°F)
Dewpoint: 26.0°C (79°F) [RH = 89%]
Pressure (altimeter): 29.82 inches Hg (1010.0 mb)
Winds: from the SSE (160 degrees) at 5 MPH (4 knots; 2.1 m/s)
Visibility: 4 miles ( 6 km)
Ceiling: at least 12,000 feet AGL
Clouds: scattered clouds at 1800 feet AGL
Weather: no significant weather observed at this time

METAR text: VOMM 182230Z 16003KT 6000 FEW018 28/26 Q1010 NOSIG
Conditions at: VOMM (MADRAS/CHENNAI , IN) observed 2230 UTC 18 February 2019
Temperature: 28.0°C (82°F)
Dewpoint: 26.0°C (79°F) [RH = 89%]
Pressure (altimeter): 29.82 inches Hg (1010.0 mb)
Winds: from the SSE (160 degrees) at 3 MPH (3 knots; 1.5 m/s)
Visibility: 4 miles ( 6 km)
Ceiling: at least 12,000 feet AGL
Clouds: few clouds at 1800 feet AGL
Weather: no significant weather observed at this time

METAR text: VOMM 182200Z 15004KT 6000 FEW018 28/26 Q1010 NOSIG
Conditions at: VOMM (MADRAS/CHENNAI , IN) observed 2200 UTC 18 February 2019
Temperature: 28.0°C (82°F)
Dewpoint: 26.0°C (79°F) [RH = 89%]
Pressure (altimeter): 29.82 inches Hg (1010.0 mb)
Winds: from the SSE (150 degrees) at 5 MPH (4 knots; 2.1 m/s)
Visibility: 4 miles ( 6 km)
Ceiling: at least 12,000 feet AGL
Clouds: few clouds at 1800 feet AGL
Weather: no significant weather observed at this time

METAR text: VOMM 182130Z 16003KT 6000 SCT018 28/26 Q1010 NOSIG
Conditions at: VOMM (MADRAS/CHENNAI , IN) observed 2130 UTC 18 February 2019
Temperature: 28.0°C (82°F)
Dewpoint: 26.0°C (79°F) [RH = 89%]
Pressure (altimeter): 29.82 inches Hg (1010.0 mb)
Winds: from the SSE (160 degrees) at 3 MPH (3 knots; 1.5 m/s)
Visibility: 4 miles ( 6 km)
Ceiling: at least 12,000 feet AGL
Clouds: scattered clouds at 1800 feet AGL
Weather: no significant weather observed at this time

METAR text: VOMM 182100Z 16004KT 6000 SCT018 28/26 Q1010 NOSIG
Conditions at: VOMM (MADRAS/CHENNAI , IN) observed 2100 UTC 18 February 2019
Temperature: 28.0°C (82°F)
Dewpoint: 26.0°C (79°F) [RH = 89%]
Pressure (altimeter): 29.82 inches Hg (1010.0 mb)
Winds: from the SSE (160 degrees) at 5 MPH (4 knots; 2.1 m/s)
Visibility: 4 miles ( 6 km)
Ceiling: at least 12,000 feet AGL
Clouds: scattered clouds at 1800 feet AGL
Weather: no significant weather observed at this time

METAR text: VOMM 182030Z 16004KT 6000 SCT018 28/26 Q1010 NOSIG
Conditions at: VOMM (MADRAS/CHENNAI , IN) observed 2030 UTC 18 February 2019
Temperature: 28.0°C (82°F)
Dewpoint: 26.0°C (79°F) [RH = 89%]
Pressure (altimeter): 29.82 inches Hg (1010.0 mb)
Winds: from the SSE (160 degrees) at 5 MPH (4 knots; 2.1 m/s)
Visibility: 4 miles ( 6 km)
Ceiling: at least 12,000 feet AGL
Clouds: scattered clouds at 1800 feet AGL
Weather: no significant weather observed at this time

METAR text: VOMM 182000Z 16004KT 6000 SCT018 28/26 Q1010 NOSIG
Conditions at: VOMM (MADRAS/CHENNAI , IN) observed 2000 UTC 18 February 2019
Temperature: 28.0°C (82°F)
Dewpoint: 26.0°C (79°F) [RH = 89%]
Pressure (altimeter): 29.82 inches Hg (1010.0 mb)
Winds: from the SSE (160 degrees) at 5 MPH (4 knots; 2.1 m/s)
Visibility: 4 miles ( 6 km)
Ceiling: at least 12,000 feet AGL
Clouds: scattered clouds at 1800 feet AGL
Weather: no significant weather observed at this time

METAR text: VOMM 181930Z 14004KT 6000 SCT018 29/26 Q1011 NOSIG
Conditions at: VOMM (MADRAS/CHENNAI , IN) observed 1930 UTC 18 February 2019
Temperature: 29.0°C (84°F)
Dewpoint: 26.0°C (79°F) [RH = 84%]
Pressure (altimeter): 29.85 inches Hg (1011.0 mb)
Winds: from the SE (140 degrees) at 5 MPH (4 knots; 2.1 m/s)
Visibility: 4 miles ( 6 km)
Ceiling: at least 12,000 feet AGL
Clouds: scattered clouds at 1800 feet AGL
Weather: no significant weather observed at this time

METAR text: VOMM 181900Z 13006KT 6000 SCT018 29/26 Q1011 NOSIG
Conditions at: VOMM (MADRAS/CHENNAI , IN) observed 1900 UTC 18 February 2019
Temperature: 29.0°C (84°F)
Dewpoint: 26.0°C (79°F) [RH = 84%]
Pressure (altimeter): 29.85 inches Hg (1011.0 mb)
Winds: from the SE (130 degrees) at 7 MPH (6 knots; 3.1 m/s)
Visibility: 4 miles ( 6 km)
Ceiling: at least 12,000 feet AGL
Clouds: scattered clouds at 1800 feet AGL
Weather: no significant weather observed at this time

METAR text: VOMM 181830Z 14006KT 6000 SCT018 29/26 Q1011 NOSIG
Conditions at: VOMM (MADRAS/CHENNAI , IN) observed 1830 UTC 18 February 2019
Temperature: 29.0°C (84°F)
Dewpoint: 26.0°C (79°F) [RH = 84%]
Pressure (altimeter): 29.85 inches Hg (1011.0 mb)
Winds: from the SE (140 degrees) at 7 MPH (6 knots; 3.1 m/s)
Visibility: 4 miles ( 6 km)
Ceiling: at least 12,000 feet AGL
Clouds: scattered clouds at 1800 feet AGL
Weather: no significant weather observed at this time

METAR text: VOMM 181800Z 11008KT 6000 SCT018 29/26 Q1011 NOSIG
Conditions at: VOMM (MADRAS/CHENNAI , IN) observed 1800 UTC 18 February 2019
Temperature: 29.0°C (84°F)
Dewpoint: 26.0°C (79°F) [RH = 84%]
Pressure (altimeter): 29.85 inches Hg (1011.0 mb)
Winds: from the ESE (110 degrees) at 9 MPH (8 knots; 4.1 m/s)
Visibility: 4 miles ( 6 km)
Ceiling: at least 12,000 feet AGL
Clouds: scattered clouds at 1800 feet AGL
Weather: no significant weather observed at this time

METAR text: VOMM 181730Z 11008KT 6000 SCT018 29/26 Q1012 NOSIG
Conditions at: VOMM (MADRAS/CHENNAI , IN) observed 1730 UTC 18 February 2019
Temperature: 29.0°C (84°F)
Dewpoint: 26.0°C (79°F) [RH = 84%]
Pressure (altimeter): 29.88 inches Hg (1012.0 mb)
Winds: from the ESE (110 degrees) at 9 MPH (8 knots; 4.1 m/s)
Visibility: 4 miles ( 6 km)
Ceiling: at least 12,000 feet AGL
Clouds: scattered clouds at 1800 feet AGL
Weather: no significant weather observed at this time

METAR text: VOMM 181700Z 11009KT 6000 SCT018 29/26 Q1012 NOSIG
Conditions at: VOMM (MADRAS/CHENNAI , IN) observed 1700 UTC 18 February 2019
Temperature: 29.0°C (84°F)
Dewpoint: 26.0°C (79°F) [RH = 84%]
Pressure (altimeter): 29.88 inches Hg (1012.0 mb)
Winds: from the ESE (110 degrees) at 10 MPH (9 knots; 4.6 m/s)
Visibility: 4 miles ( 6 km)
Ceiling: at least 12,000 feet AGL
Clouds: scattered clouds at 1800 feet AGL
Weather: no significant weather observed at this time

METAR text: VOMM 181630Z 11009KT 6000 SCT018 29/26 Q1012 NOSIG
Conditions at: VOMM (MADRAS/CHENNAI , IN) observed 1630 UTC 18 February 2019
Temperature: 29.0°C (84°F)
Dewpoint: 26.0°C (79°F) [RH = 84%]
Pressure (altimeter): 29.88 inches Hg (1012.0 mb)
Winds: from the ESE (110 degrees) at 10 MPH (9 knots; 4.6 m/s)
Visibility: 4 miles ( 6 km)
Ceiling: at least 12,000 feet AGL
Clouds: scattered clouds at 1800 feet AGL
Weather: no significant weather observed at this time

METAR text: VOMM 181600Z 11009KT 6000 SCT018 29/26 Q1011 NOSIG
Conditions at: VOMM (MADRAS/CHENNAI , IN) observed 1600 UTC 18 February 2019
Temperature: 29.0°C (84°F)
Dewpoint: 26.0°C (79°F) [RH = 84%]
Pressure (altimeter): 29.85 inches Hg (1011.0 mb)
Winds: from the ESE (110 degrees) at 10 MPH (9 knots; 4.6 m/s)
Visibility: 4 miles ( 6 km)
Ceiling: at least 12,000 feet AGL
Clouds: scattered clouds at 1800 feet AGL
Weather: no significant weather observed at this time

METAR text: VOMM 181530Z 11009KT 6000 SCT020 29/26 Q1011 NOSIG
Conditions at: VOMM (MADRAS/CHENNAI , IN) observed 1530 UTC 18 February 2019
Temperature: 29.0°C (84°F)
Dewpoint: 26.0°C (79°F) [RH = 84%]
Pressure (altimeter): 29.85 inches Hg (1011.0 mb)
Winds: from the ESE (110 degrees) at 10 MPH (9 knots; 4.6 m/s)
Visibility: 4 miles ( 6 km)
Ceiling: at least 12,000 feet AGL
Clouds: scattered clouds at 2000 feet AGL
Weather: no significant weather observed at this time

METAR text: VOMM 181500Z 11010KT 6000 SCT020 29/26 Q1011 NOSIG
Conditions at: VOMM (MADRAS/CHENNAI , IN) observed 1500 UTC 18 February 2019
Temperature: 29.0°C (84°F)
Dewpoint: 26.0°C (79°F) [RH = 84%]
Pressure (altimeter): 29.85 inches Hg (1011.0 mb)
Winds: from the ESE (110 degrees) at 12 MPH (10 knots; 5.1 m/s)
Visibility: 4 miles ( 6 km)
Ceiling: at least 12,000 feet AGL
Clouds: scattered clouds at 2000 feet AGL
Weather: no significant weather observed at this time

METAR text: VOMM 181430Z 11010KT 6000 SCT020 29/26 Q1010 NOSIG
Conditions at: VOMM (MADRAS/CHENNAI , IN) observed 1430 UTC 18 February 2019
Temperature: 29.0°C (84°F)
Dewpoint: 26.0°C (79°F) [RH = 84%]
Pressure (altimeter): 29.82 inches Hg (1010.0 mb)
Winds: from the ESE (110 degrees) at 12 MPH (10 knots; 5.1 m/s)
Visibility: 4 miles ( 6 km)
Ceiling: at least 12,000 feet AGL
Clouds: scattered clouds at 2000 feet AGL
Weather: no significant weather observed at this time

METAR text: VOMM 181400Z 12011KT 6000 SCT020 29/26 Q1010 NOSIG
Conditions at: VOMM (MADRAS/CHENNAI , IN) observed 1400 UTC 18 February 2019
Temperature: 29.0°C (84°F)
Dewpoint: 26.0°C (79°F) [RH = 84%]
Pressure (altimeter): 29.82 inches Hg (1010.0 mb)
Winds: from the ESE (120 degrees) at 13 MPH (11 knots; 5.7 m/s)
Visibility: 4 miles ( 6 km)
Ceiling: at least 12,000 feet AGL
Clouds: scattered clouds at 2000 feet AGL
Weather: no significant weather observed at this time

METAR text: VOMM 181330Z 11012KT 6000 SCT020 29/26 Q1010 NOSIG
Conditions at: VOMM (MADRAS/CHENNAI , IN) observed 1330 UTC 18 February 2019
Temperature: 29.0°C (84°F)
Dewpoint: 26.0°C (79°F) [RH = 84%]
Pressure (altimeter): 29.82 inches Hg (1010.0 mb)
Winds: from the ESE (110 degrees) at 14 MPH (12 knots; 6.2 m/s)
Visibility: 4 miles ( 6 km)
Ceiling: at least 12,000 feet AGL
Clouds: scattered clouds at 2000 feet AGL
Weather: no significant weather observed at this time

METAR text: VOMM 181300Z 11012KT 6000 SCT020 FEW025TCU 29/26 Q1009 NOSIG
Conditions at: VOMM (MADRAS/CHENNAI , IN) observed 1300 UTC 18 February 2019
Temperature: 29.0°C (84°F)
Dewpoint: 26.0°C (79°F) [RH = 84%]
Pressure (altimeter): 29.79 inches Hg (1009.0 mb)
Winds: from the ESE (110 degrees) at 14 MPH (12 knots; 6.2 m/s)
Visibility: 4 miles ( 6 km)
Ceiling: at least 12,000 feet AGL
Clouds: scattered clouds at 2000 feet AGL
few clouds at 2500 feet AGL
Weather: no significant weather observed at this time

METAR text: VOMM 181230Z 11012KT 6000 SCT020 30/26 Q1009 NOSIG
Conditions at: VOMM (MADRAS/CHENNAI , IN) observed 1230 UTC 18 February 2019
Temperature: 30.0°C (86°F)
Dewpoint: 26.0°C (79°F) [RH = 79%]
Pressure (altimeter): 29.79 inches Hg (1009.0 mb)
Winds: from the ESE (110 degrees) at 14 MPH (12 knots; 6.2 m/s)
Visibility: 4 miles ( 6 km)
Ceiling: at least 12,000 feet AGL
Clouds: scattered clouds at 2000 feet AGL
Weather: no significant weather observed at this time

METAR text: VOMM 181200Z 11012KT 8000 SCT020 30/26 Q1008 NOSIG
Conditions at: VOMM (MADRAS/CHENNAI , IN) observed 1200 UTC 18 February 2019
Temperature: 30.0°C (86°F)
Dewpoint: 26.0°C (79°F) [RH = 79%]
Pressure (altimeter): 29.76 inches Hg (1008.0 mb)
Winds: from the ESE (110 degrees) at 14 MPH (12 knots; 6.2 m/s)
Visibility: 5 miles ( 8 km)
Ceiling: at least 12,000 feet AGL
Clouds: scattered clouds at 2000 feet AGL
Weather: no significant weather observed at this time

METAR text: VOMM 181130Z 11012KT 8000 SCT020 30/26 Q1008 NOSIG
Conditions at: VOMM (MADRAS/CHENNAI , IN) observed 1130 UTC 18 February 2019
Temperature: 30.0°C (86°F)
Dewpoint: 26.0°C (79°F) [RH = 79%]
Pressure (altimeter): 29.76 inches Hg (1008.0 mb)
Winds: from the ESE (110 degrees) at 14 MPH (12 knots; 6.2 m/s)
Visibility: 5 miles ( 8 km)
Ceiling: at least 12,000 feet AGL
Clouds: scattered clouds at 2000 feet AGL
Weather: no significant weather observed at this time

METAR text: VOMM 181100Z 11012KT 8000 SCT020 31/26 Q1008 NOSIG
Conditions at: VOMM (MADRAS/CHENNAI , IN) observed 1100 UTC 18 February 2019
Temperature: 31.0°C (88°F)
Dewpoint: 26.0°C (79°F) [RH = 75%]
Pressure (altimeter): 29.76 inches Hg (1008.0 mb)
Winds: from the ESE (110 degrees) at 14 MPH (12 knots; 6.2 m/s)
Visibility: 5 miles ( 8 km)
Ceiling: at least 12,000 feet AGL
Clouds: scattered clouds at 2000 feet AGL
Weather: no significant weather observed at this time

METAR text: VOMM 181030Z 11012KT 8000 SCT020 31/26 Q1008 NOSIG
Conditions at: VOMM (MADRAS/CHENNAI , IN) observed 1030 UTC 18 February 2019
Temperature: 31.0°C (88°F)
Dewpoint: 26.0°C (79°F) [RH = 75%]
Pressure (altimeter): 29.76 inches Hg (1008.0 mb)
Winds: from the ESE (110 degrees) at 14 MPH (12 knots; 6.2 m/s)
Visibility: 5 miles ( 8 km)
Ceiling: at least 12,000 feet AGL
Clouds: scattered clouds at 2000 feet AGL
Weather: no significant weather observed at this time

METAR text: VOMM 181000Z 11013KT 8000 FEW020 31/26 Q1008 NOSIG
Conditions at: VOMM (MADRAS/CHENNAI , IN) observed 1000 UTC 18 February 2019
Temperature: 31.0°C (88°F)
Dewpoint: 26.0°C (79°F) [RH = 75%]
Pressure (altimeter): 29.76 inches Hg (1008.0 mb)
Winds: from the ESE (110 degrees) at 15 MPH (13 knots; 6.7 m/s)
Visibility: 5 miles ( 8 km)
Ceiling: at least 12,000 feet AGL
Clouds: few clouds at 2000 feet AGL
Weather: no significant weather observed at this time

METAR text: VOMM 180930Z 12010KT 8000 FEW020 32/26 Q1008 NOSIG
Conditions at: VOMM (MADRAS/CHENNAI , IN) observed 0930 UTC 18 February 2019
Temperature: 32.0°C (90°F)
Dewpoint: 26.0°C (79°F) [RH = 71%]
Pressure (altimeter): 29.76 inches Hg (1008.0 mb)
Winds: from the ESE (120 degrees) at 12 MPH (10 knots; 5.1 m/s)
Visibility: 5 miles ( 8 km)
Ceiling: at least 12,000 feet AGL
Clouds: few clouds at 2000 feet AGL
Weather: no significant weather observed at this time

METAR text: VOMM 180900Z 12010KT 8000 FEW020 33/26 Q1009 NOSIG
Conditions at: VOMM (MADRAS/CHENNAI , IN) observed 0900 UTC 18 February 2019
Temperature: 33.0°C (91°F)
Dewpoint: 26.0°C (79°F) [RH = 67%]
Pressure (altimeter): 29.79 inches Hg (1009.0 mb)
Winds: from the ESE (120 degrees) at 12 MPH (10 knots; 5.1 m/s)
Visibility: 5 miles ( 8 km)
Ceiling: at least 12,000 feet AGL
Clouds: few clouds at 2000 feet AGL
Weather: no significant weather observed at this time

METAR text: VOMM 180830Z 10010KT 8000 FEW020 33/26 Q1009 NOSIG
Conditions at: VOMM (MADRAS/CHENNAI , IN) observed 0830 UTC 18 February 2019
Temperature: 33.0°C (91°F)
Dewpoint: 26.0°C (79°F) [RH = 67%]
Pressure (altimeter): 29.79 inches Hg (1009.0 mb)
Winds: from the E (100 degrees) at 12 MPH (10 knots; 5.1 m/s)
Visibility: 5 miles ( 8 km)
Ceiling: at least 12,000 feet AGL
Clouds: few clouds at 2000 feet AGL
Weather: no significant weather observed at this time

METAR text: VOMM 180800Z 09010KT 7000 SCT020 33/26 Q1010 NOSIG
Conditions at: VOMM (MADRAS/CHENNAI , IN) observed 0800 UTC 18 February 2019
Temperature: 33.0°C (91°F)
Dewpoint: 26.0°C (79°F) [RH = 67%]
Pressure (altimeter): 29.82 inches Hg (1010.0 mb)
Winds: from the E (90 degrees) at 12 MPH (10 knots; 5.1 m/s)
Visibility: 4 miles ( 7 km)
Ceiling: at least 12,000 feet AGL
Clouds: scattered clouds at 2000 feet AGL
Weather: no significant weather observed at this time

METAR text: VOMM 180730Z 09010KT 7000 SCT020 33/26 Q1010 NOSIG
Conditions at: VOMM (MADRAS/CHENNAI , IN) observed 0730 UTC 18 February 2019
Temperature: 33.0°C (91°F)
Dewpoint: 26.0°C (79°F) [RH = 67%]
Pressure (altimeter): 29.82 inches Hg (1010.0 mb)
Winds: from the E (90 degrees) at 12 MPH (10 knots; 5.1 m/s)
Visibility: 4 miles ( 7 km)
Ceiling: at least 12,000 feet AGL
Clouds: scattered clouds at 2000 feet AGL
Weather: no significant weather observed at this time

METAR text: VOMM 180700Z 09010KT 7000 SCT020 SCT025 33/26 Q1011 NOSIG
Conditions at: VOMM (MADRAS/CHENNAI , IN) observed 0700 UTC 18 February 2019
Temperature: 33.0°C (91°F)
Dewpoint: 26.0°C (79°F) [RH = 67%]
Pressure (altimeter): 29.85 inches Hg (1011.0 mb)
Winds: from the E (90 degrees) at 12 MPH (10 knots; 5.1 m/s)
Visibility: 4 miles ( 7 km)
Ceiling: at least 12,000 feet AGL
Clouds: scattered clouds at 2000 feet AGL
scattered clouds at 2500 feet AGL
Weather: no significant weather observed at this time

METAR text: VOMM 180630Z 10006KT 7000 SCT020 SCT025 33/24 Q1012 NOSIG
Conditions at: VOMM (MADRAS/CHENNAI , IN) observed 0630 UTC 18 February 2019
Temperature: 33.0°C (91°F)
Dewpoint: 24.0°C (75°F) [RH = 59%]
Pressure (altimeter): 29.88 inches Hg (1012.0 mb)
Winds: from the E (100 degrees) at 7 MPH (6 knots; 3.1 m/s)
Visibility: 4 miles ( 7 km)
Ceiling: at least 12,000 feet AGL
Clouds: scattered clouds at 2000 feet AGL
scattered clouds at 2500 feet AGL
Weather: no significant weather observed at this time

METAR text: VOMM 180600Z 12006KT 6000 SCT020 SCT025 33/25 Q1013 NOSIG
Conditions at: VOMM (MADRAS/CHENNAI , IN) observed 0600 UTC 18 February 2019
Temperature: 33.0°C (91°F)
Dewpoint: 25.0°C (77°F) [RH = 63%]
Pressure (altimeter): 29.91 inches Hg (1013.0 mb)
Winds: from the ESE (120 degrees) at 7 MPH (6 knots; 3.1 m/s)
Visibility: 4 miles ( 6 km)
Ceiling: at least 12,000 feet AGL
Clouds: scattered clouds at 2000 feet AGL
scattered clouds at 2500 feet AGL
Weather: no significant weather observed at this time

METAR text: VOMM 180530Z 16009KT 6000 SCT020 SCT025 33/24 Q1013 NOSIG
Conditions at: VOMM (MADRAS/CHENNAI , IN) observed 0530 UTC 18 February 2019
Temperature: 33.0°C (91°F)
Dewpoint: 24.0°C (75°F) [RH = 59%]
Pressure (altimeter): 29.91 inches Hg (1013.0 mb)
Winds: from the SSE (160 degrees) at 10 MPH (9 knots; 4.6 m/s)
Visibility: 4 miles ( 6 km)
Ceiling: at least 12,000 feet AGL
Clouds: scattered clouds at 2000 feet AGL
scattered clouds at 2500 feet AGL
Weather: no significant weather observed at this time

METAR text: VOMM 180500Z 18007KT 6000 SCT020 SCT025 31/25 Q1014 NOSIG
Conditions at: VOMM (MADRAS/CHENNAI , IN) observed 0500 UTC 18 February 2019
Temperature: 31.0°C (88°F)
Dewpoint: 25.0°C (77°F) [RH = 71%]
Pressure (altimeter): 29.94 inches Hg (1014.0 mb)
Winds: from the S (180 degrees) at 8 MPH (7 knots; 3.6 m/s)
Visibility: 4 miles ( 6 km)
Ceiling: at least 12,000 feet AGL
Clouds: scattered clouds at 2000 feet AGL
scattered clouds at 2500 feet AGL
Weather: no significant weather observed at this time

METAR text: VOMM 180430Z 17007KT 5000 HZ SCT020 31/25 Q1014 BECMG 6000
Conditions at: VOMM (MADRAS/CHENNAI , IN) observed 0430 UTC 18 February 2019
Temperature: 31.0°C (88°F)
Dewpoint: 25.0°C (77°F) [RH = 71%]
Pressure (altimeter): 29.94 inches Hg (1014.0 mb)
Winds: from the S (170 degrees) at 8 MPH (7 knots; 3.6 m/s)
Visibility: 3 miles ( 5 km)
Ceiling: at least 12,000 feet AGL
Clouds: scattered clouds at 2000 feet AGL
Weather: HZ  (haze)

METAR text: VOMM 180400Z 17007KT 5000 HZ SCT020 30/25 Q1014 NOSIG
Conditions at: VOMM (MADRAS/CHENNAI , IN) observed 0400 UTC 18 February 2019
Temperature: 30.0°C (86°F)
Dewpoint: 25.0°C (77°F) [RH = 75%]
Pressure (altimeter): 29.94 inches Hg (1014.0 mb)
Winds: from the S (170 degrees) at 8 MPH (7 knots; 3.6 m/s)
Visibility: 3 miles ( 5 km)
Ceiling: at least 12,000 feet AGL
Clouds: scattered clouds at 2000 feet AGL
Weather: HZ  (haze)

METAR text: VOMM 180330Z 18008KT 5000 BR SCT020 29/25 Q1014 NOSIG
Conditions at: VOMM (MADRAS/CHENNAI , IN) observed 0330 UTC 18 February 2019
Temperature: 29.0°C (84°F)
Dewpoint: 25.0°C (77°F) [RH = 79%]
Pressure (altimeter): 29.94 inches Hg (1014.0 mb)
Winds: from the S (180 degrees) at 9 MPH (8 knots; 4.1 m/s)
Visibility: 3 miles ( 5 km)
Ceiling: at least 12,000 feet AGL
Clouds: scattered clouds at 2000 feet AGL
Weather: BR  (mist)

METAR text: VOMM 180300Z 17006KT 5000 BR FEW020 29/26 Q1013 NOSIG
Conditions at: VOMM (MADRAS/CHENNAI , IN) observed 0300 UTC 18 February 2019
Temperature: 29.0°C (84°F)
Dewpoint: 26.0°C (79°F) [RH = 84%]
Pressure (altimeter): 29.91 inches Hg (1013.0 mb)
Winds: from the S (170 degrees) at 7 MPH (6 knots; 3.1 m/s)
Visibility: 3 miles ( 5 km)
Ceiling: at least 12,000 feet AGL
Clouds: few clouds at 2000 feet AGL
Weather: BR  (mist)

METAR text: VOMM 180230Z 16006KT 4000 BR FEW020 29/26 Q1013 NOSIG
Conditions at: VOMM (MADRAS/CHENNAI , IN) observed 0230 UTC 18 February 2019
Temperature: 29.0°C (84°F)
Dewpoint: 26.0°C (79°F) [RH = 84%]
Pressure (altimeter): 29.91 inches Hg (1013.0 mb)
Winds: from the SSE (160 degrees) at 7 MPH (6 knots; 3.1 m/s)
Visibility: 2.49 miles (4.01 km)
Ceiling: at least 12,000 feet AGL
Clouds: few clouds at 2000 feet AGL
Weather: BR  (mist)

METAR text: VOMM 180200Z 16003KT 4000 BR FEW020 28/26 Q1012 NOSIG
Conditions at: VOMM (MADRAS/CHENNAI , IN) observed 0200 UTC 18 February 2019
Temperature: 28.0°C (82°F)
Dewpoint: 26.0°C (79°F) [RH = 89%]
Pressure (altimeter): 29.88 inches Hg (1012.0 mb)
Winds: from the SSE (160 degrees) at 3 MPH (3 knots; 1.5 m/s)
Visibility: 2.49 miles (4.01 km)
Ceiling: at least 12,000 feet AGL
Clouds: few clouds at 2000 feet AGL
Weather: BR  (mist)

METAR text: VOMM 180130Z 00000KT 4000 BR FEW020 26/25 Q1012 NOSIG
Conditions at: VOMM (MADRAS/CHENNAI , IN) observed 0130 UTC 18 February 2019
Temperature: 26.0°C (79°F)
Dewpoint: 25.0°C (77°F) [RH = 94%]
Pressure (altimeter): 29.88 inches Hg (1012.0 mb)
Winds: calm
Visibility: 2.49 miles (4.01 km)
Ceiling: at least 12,000 feet AGL
Clouds: few clouds at 2000 feet AGL
Weather: BR  (mist)

METAR text: VOMM 180100Z 00000KT 4000 BR FEW020 26/25 Q1011 NOSIG
Conditions at: VOMM (MADRAS/CHENNAI , IN) observed 0100 UTC 18 February 2019
Temperature: 26.0°C (79°F)
Dewpoint: 25.0°C (77°F) [RH = 94%]
Pressure (altimeter): 29.85 inches Hg (1011.0 mb)
Winds: calm
Visibility: 2.49 miles (4.01 km)
Ceiling: at least 12,000 feet AGL
Clouds: few clouds at 2000 feet AGL
Weather: BR  (mist)

METAR text: VOMM 180030Z 00000KT 4000 BR FEW020 26/25 Q1011 TEMPO 3000 BR
Conditions at: VOMM (MADRAS/CHENNAI , IN) observed 0030 UTC 18 February 2019
Temperature: 26.0°C (79°F)
Dewpoint: 25.0°C (77°F) [RH = 94%]
Pressure (altimeter): 29.85 inches Hg (1011.0 mb)
Winds: calm
Visibility: 2.49 miles (4.01 km)
Ceiling: at least 12,000 feet AGL
Clouds: few clouds at 2000 feet AGL
Weather: BR  (mist)

METAR text: VOMM 180000Z 00000KT 4500 BR FEW020 26/24 Q1010 TEMPO 4000 BR
Conditions at: VOMM (MADRAS/CHENNAI , IN) observed 0000 UTC 18 February 2019
Temperature: 26.0°C (79°F)
Dewpoint: 24.0°C (75°F) [RH = 89%]
Pressure (altimeter): 29.82 inches Hg (1010.0 mb)
Winds: calm
Visibility: 2.80 miles (4.51 km)
Ceiling: at least 12,000 feet AGL
Clouds: few clouds at 2000 feet AGL
Weather: BR  (mist)

METAR text: VOMM 172330Z 00000KT 5000 BR FEW020 27/25 Q1010 NOSIG
Conditions at: VOMM (MADRAS/CHENNAI , IN) observed 2330 UTC 17 February 2019
Temperature: 27.0°C (81°F)
Dewpoint: 25.0°C (77°F) [RH = 89%]
Pressure (altimeter): 29.82 inches Hg (1010.0 mb)
Winds: calm
Visibility: 3 miles ( 5 km)
Ceiling: at least 12,000 feet AGL
Clouds: few clouds at 2000 feet AGL
Weather: BR  (mist)

Forecast for: VOMM (MADRAS/CHENNAI , IN)
Text: TAF VOMM 191100Z 1912/2018 12010KT 6000 FEW020 SCT100
Forecast period: 1200 to 1800 UTC 19 February 2019
Forecast type: FROM: standard forecast or significant change
Winds: from the ESE (120 degrees) at 12 MPH (10 knots; 5.1 m/s)
Visibility: 4 miles (6 km)
Ceiling: at least 12,000 feet AGL
Clouds: few clouds at 2000 feet AGL
scattered clouds at 10000 feet AGL
Weather: no significant weather forecast for this period
Text: BECMG 1918/1919 5000 HZ
Forecast period: 1800 to 2200 UTC 19 February 2019
Forecast type: BECOMING: Conditions expected to become as follows by 1900 UTC 19 February 2019
Winds: from the ESE (120 degrees) at 12 MPH (10 knots; 5.1 m/s)
Visibility: 3 miles (5 km)
Ceiling: at least 12,000 feet AGL
Clouds: few clouds at 2000 feet AGL
scattered clouds at 10000 feet AGL
Weather: HZ  (haze)
Text: BECMG 1922/1923 20005KT 3000 BR
Forecast period: 2200 UTC 19 February 2019 to 0400 UTC 20 February 2019
Forecast type: BECOMING: Conditions expected to become as follows by 2300 UTC 19 February 2019
Winds: from the SSW (200 degrees) at 6 MPH (5 knots; 2.6 m/s)
Visibility: 1.86 miles (2.99 km)
Ceiling: at least 12,000 feet AGL
Clouds: few clouds at 2000 feet AGL
scattered clouds at 10000 feet AGL
Weather: BR  (mist)
Text: TEMPO 2000/2003 1500 BR
Forecast period: 0000 to 0300 UTC 20 February 2019
Forecast type: TEMPORARY: The following changes expected for less than half the time period
Visibility: 0.93 miles (1.50 km)
Ceiling: unknown
Clouds: missing
Weather: BR  (mist)
Text: BECMG 2004/2005 09010KT 5000 HZ
Forecast period: 0400 to 0700 UTC 20 February 2019
Forecast type: BECOMING: Conditions expected to become as follows by 0500 UTC 20 February 2019
Winds: from the E (90 degrees) at 12 MPH (10 knots; 5.1 m/s)
Visibility: 3 miles (5 km)
Ceiling: at least 12,000 feet AGL
Clouds: few clouds at 2000 feet AGL
scattered clouds at 10000 feet AGL
Weather: HZ  (haze)
Text: BECMG 2007/2008 6000
Forecast period: 0700 to 1800 UTC 20 February 2019
Forecast type: BECOMING: Conditions expected to become as follows by 0800 UTC 20 February 2019
Winds: from the E (90 degrees) at 12 MPH (10 knots; 5.1 m/s)
Visibility: 4 miles (6 km)
Ceiling: at least 12,000 feet AGL
Clouds: few clouds at 2000 feet AGL
scattered clouds at 10000 feet AGL
Weather: HZ  (haze)